King William's Town, South Africa
Current Conditions -  °F | °C
As of 6:13 AM on Wednesday 26 Nov 2014 (Local Time) from FAEL Reporting Station
Overcast Overcast  
Wind Chill: 64°   Ceiling: 1300
Heat Index: 64°   Visibility: 5mi
Dew Point: 64°   Wind: 9mph
Humidity: 100%   Direction: 50°NE
Pressure: 30"   Gusts: NA
Location:  32.88°S, 27.4°E
Report Text: FAEL 260413Z 05008KT 8000 SCT003 BKN013 OVC026 18/18 Q1016 RERA
Loading
Personal Weather Stations






























Interactive Weather Map New forecast layout! Learn more

10-Day Weather Forecast

Advertisements
Track Severe Weather on mobile